Time;durP1;ratioP1;P1;durP2;ratioP2;P2;SDS_P1;SDS_P2;PMS_P1;PMS_P2;Temp;Humidity;BMP_temperature;BMP_pressure;BME280_temperature;BME280_humidity;BME280_pressure;Samples;Min_cycle;Max_cycle;Signal;HPM_P1;HPM_P2
2021/08/07 00:02:05;;;;;;;2.70;2.50;;;22.70;34.20;;;;;;5053587;28;20299;-67
2021/08/07 00:04:31;;;;;;;2.40;2.20;;;22.70;34.20;;;;;;5053759;28;20203;-67
2021/08/07 00:06:57;;;;;;;2.33;2.20;;;22.70;34.20;;;;;;5053275;28;20227;-67
2021/08/07 00:09:22;;;;;;;2.57;2.37;;;22.70;34.20;;;;;;5053255;28;20180;-67
2021/08/07 00:11:48;;;;;;;2.60;2.40;;;22.70;34.30;;;;;;5053526;28;20518;-67
2021/08/07 00:14:13;;;;;;;2.67;2.47;;;22.70;34.30;;;;;;5053475;28;20199;-67
2021/08/07 00:16:39;;;;;;;2.13;1.93;;;22.70;34.40;;;;;;5053009;28;20842;-67
2021/08/07 00:19:04;;;;;;;2.57;2.37;;;22.70;34.40;;;;;;5053382;28;20525;-67
2021/08/07 00:21:30;;;;;;;2.20;2.10;;;22.70;34.40;;;;;;5053386;28;20175;-67
2021/08/07 00:23:56;;;;;;;2.70;2.30;;;22.70;34.30;;;;;;5053442;28;20183;-67
2021/08/07 00:26:21;;;;;;;2.73;2.53;;;22.70;34.30;;;;;;5053050;28;20234;-67
2021/08/07 00:28:47;;;;;;;3.00;2.80;;;22.60;34.30;;;;;;5053187;28;20176;-67
2021/08/07 00:31:13;;;;;;;3.20;2.87;;;22.60;34.20;;;;;;5052859;28;20537;-67
2021/08/07 00:33:38;;;;;;;4.00;2.90;;;22.60;34.20;;;;;;5053135;28;20178;-67
2021/08/07 00:36:04;;;;;;;2.80;2.60;;;22.60;34.30;;;;;;5052735;28;20259;-67
2021/08/07 00:38:30;;;;;;;6.23;2.90;;;22.70;34.30;;;;;;5053052;28;20171;-67
2021/08/07 00:40:55;;;;;;;2.80;2.60;;;22.70;34.40;;;;;;5052992;28;20172;-67
2021/08/07 00:43:21;;;;;;;2.57;2.40;;;22.60;34.40;;;;;;5053319;28;20206;-67
2021/08/07 00:45:46;;;;;;;2.60;2.33;;;22.60;34.40;;;;;;5052485;28;20674;-67
2021/08/07 00:48:12;;;;;;;2.70;2.50;;;22.60;34.40;;;;;;5052897;28;20183;-67
2021/08/07 00:50:38;;;;;;;2.57;2.40;;;22.60;34.50;;;;;;5052964;28;20183;-67
2021/08/07 00:53:04;;;;;;;3.40;2.87;;;22.60;34.60;;;;;;5052747;28;20229;-64
2021/08/07 00:55:31;;;;;;;4.37;2.50;;;22.60;34.60;;;;;;5051773;28;20334;-67
2021/08/07 00:57:56;;;;;;;2.60;2.40;;;22.60;34.50;;;;;;5052483;28;20789;-67
2021/08/07 01:00:22;;;;;;;2.70;2.50;;;22.60;34.60;;;;;;5052529;28;20532;-67
2021/08/07 01:03:01;;;;;;;3.37;2.73;;;22.60;34.70;;;;;;5052507;28;20549;-67
2021/08/07 01:05:51;;;;;;;3.13;2.83;;;22.60;34.80;;;;;;5052404;28;20219;-67
2021/08/07 01:08:19;;;;;;;3.77;2.57;;;22.60;34.70;;;;;;5052456;28;20433;-67
2021/08/07 01:11:21;;;;;;;2.80;2.60;;;22.60;34.70;;;;;;5052280;28;20422;-67
2021/08/07 01:13:51;;;;;;;2.50;2.40;;;22.60;34.80;;;;;;5052243;28;20449;-67
2021/08/07 01:16:25;;;;;;;2.50;2.30;;;22.60;34.80;;;;;;5051998;28;20904;-67
2021/08/07 01:18:51;;;;;;;2.70;2.50;;;22.60;34.90;;;;;;5052206;28;20417;-67
2021/08/07 01:21:22;;;;;;;3.63;2.40;;;22.60;34.80;;;;;;5051306;28;20958;-67
2021/08/07 01:23:50;;;;;;;2.40;2.30;;;22.60;34.80;;;;;;5052025;28;20422;-67
2021/08/07 01:26:24;;;;;;;2.73;2.53;;;22.60;34.80;;;;;;5052172;28;20660;-67
2021/08/07 01:28:52;;;;;;;4.13;2.90;;;22.60;34.80;;;;;;5052086;28;20410;-67
2021/08/07 01:31:18;;;;;;;3.50;2.80;;;22.60;34.80;;;;;;5052248;28;20772;-67
2021/08/07 01:33:46;;;;;;;2.77;2.50;;;22.60;34.90;;;;;;5051702;28;20460;-67
2021/08/07 01:36:13;;;;;;;2.83;2.63;;;22.60;35.00;;;;;;5051614;28;20944;-67
2021/08/07 01:38:41;;;;;;;5.00;2.80;;;22.60;35.10;;;;;;5051938;28;20425;-67
2021/08/07 01:41:21;;;;;;;2.60;2.40;;;22.50;34.90;;;;;;5051828;28;20429;-67
2021/08/07 01:43:48;;;;;;;2.80;2.30;;;22.50;34.90;;;;;;5051876;28;20412;-67
2021/08/07 01:46:16;;;;;;;3.27;3.07;;;22.50;35.00;;;;;;5051248;28;20529;-67
2021/08/07 01:48:57;;;;;;;3.10;2.90;;;22.60;35.20;;;;;;5051821;28;20410;-67
2021/08/07 01:51:30;;;;;;;4.50;3.30;;;22.50;35.00;;;;;;5051731;28;20407;-67
2021/08/07 01:53:58;;;;;;;3.10;2.90;;;22.50;35.00;;;;;;5051810;28;20450;-67
2021/08/07 01:56:32;;;;;;;3.40;3.10;;;22.50;35.00;;;;;;5051390;28;20793;-67
2021/08/07 01:59:04;;;;;;;2.87;2.40;;;22.50;35.00;;;;;;5051638;28;20526;-67
2021/08/07 02:01:31;;;;;;;3.63;2.60;;;22.50;35.00;;;;;;5051617;28;20426;-67
2021/08/07 02:04:01;;;;;;;2.60;2.40;;;22.50;35.10;;;;;;5051694;28;20446;-67
2021/08/07 02:06:27;;;;;;;4.30;2.80;;;22.50;35.10;;;;;;5051352;28;20430;-67
2021/08/07 02:08:53;;;;;;;2.90;2.70;;;22.50;35.10;;;;;;5051433;28;20444;-67
2021/08/07 02:11:20;;;;;;;2.20;2.10;;;22.50;35.10;;;;;;5051515;28;20905;-67
2021/08/07 02:13:47;;;;;;;12.93;3.90;;;22.50;35.10;;;;;;5051785;28;21005;-67
2021/08/07 02:16:14;;;;;;;2.73;2.50;;;22.50;35.00;;;;;;5051084;28;20598;-67
2021/08/07 02:18:41;;;;;;;3.00;2.80;;;22.50;35.10;;;;;;5051545;28;20497;-67
2021/08/07 02:21:07;;;;;;;2.63;2.43;;;22.50;35.80;;;;;;5051532;28;20413;-67
2021/08/07 02:23:33;;;;;;;2.67;2.53;;;22.50;35.00;;;;;;5051199;28;20413;-67
2021/08/07 02:26:02;;;;;;;2.70;2.50;;;22.50;35.00;;;;;;5051261;28;20517;-67
2021/08/07 02:28:29;;;;;;;3.20;2.33;;;22.50;35.00;;;;;;5051292;28;20513;-67
2021/08/07 02:30:54;;;;;;;2.60;2.40;;;22.50;34.90;;;;;;5051342;28;20402;-67
2021/08/07 02:33:22;;;;;;;2.97;2.67;;;22.50;35.60;;;;;;5052826;28;20491;-67
2021/08/07 02:35:53;;;;;;;3.40;2.60;;;22.50;34.90;;;;;;5055020;28;20465;-67
2021/08/07 02:38:19;;;;;;;4.40;2.80;;;22.50;34.80;;;;;;5055184;28;20888;-67
2021/08/07 02:40:45;;;;;;;2.80;2.30;;;22.50;34.80;;;;;;5055422;28;20823;-67
2021/08/07 02:43:13;;;;;;;2.63;2.43;;;22.50;34.90;;;;;;5055019;28;20402;-67
2021/08/07 02:45:39;;;;;;;3.80;2.63;;;22.50;34.90;;;;;;5054789;28;20949;-67
2021/08/07 02:48:05;;;;;;;3.17;2.87;;;22.50;34.90;;;;;;5055017;28;20495;-67
2021/08/07 02:50:32;;;;;;;2.60;2.40;;;22.50;34.90;;;;;;5054929;28;20456;-67
2021/08/07 02:52:58;;;;;;;3.03;2.70;;;22.50;34.90;;;;;;5054872;28;20406;-67
2021/08/07 02:55:24;;;;;;;2.47;2.27;;;22.50;34.90;;;;;;5054390;28;20473;-67
2021/08/07 02:57:53;;;;;;;2.90;2.60;;;22.50;34.90;;;;;;5054892;28;20176;-67
2021/08/07 03:00:20;;;;;;;3.70;2.50;;;22.50;34.90;;;;;;5054840;28;20169;-67
2021/08/07 03:02:46;;;;;;;3.83;2.70;;;22.50;35.00;;;;;;5054745;28;20398;-67
2021/08/07 03:05:11;;;;;;;3.90;2.70;;;22.50;35.00;;;;;;5054300;28;20437;-67
2021/08/07 03:07:37;;;;;;;2.47;2.27;;;22.40;34.90;;;;;;5054710;28;20415;-67
2021/08/07 03:10:08;;;;;;;2.30;2.10;;;22.50;35.00;;;;;;5054705;28;20174;-67
2021/08/07 03:12:35;;;;;;;4.70;2.50;;;22.50;34.90;;;;;;5054554;28;20403;-67
2021/08/07 03:15:01;;;;;;;2.63;2.43;;;22.40;34.90;;;;;;5054370;28;20897;-67
2021/08/07 03:17:26;;;;;;;2.70;2.50;;;22.40;34.80;;;;;;5054436;28;20489;-67
2021/08/07 03:19:52;;;;;;;1.97;1.80;;;22.50;34.90;;;;;;5054353;28;20255;-67
2021/08/07 03:22:17;;;;;;;3.13;2.90;;;22.40;34.90;;;;;;5054356;28;20168;-67
2021/08/07 03:24:46;;;;;;;3.23;2.23;;;22.40;34.90;;;;;;5054305;28;20180;-67
2021/08/07 03:27:12;;;;;;;3.77;2.63;;;22.40;34.90;;;;;;5054630;28;20588;-67
2021/08/07 03:29:38;;;;;;;2.67;2.47;;;22.40;34.90;;;;;;5054438;28;20419;-67
2021/08/07 03:32:04;;;;;;;2.80;2.60;;;22.40;34.90;;;;;;5054270;28;20414;-67
2021/08/07 03:34:29;;;;;;;2.67;2.40;;;22.40;34.80;;;;;;5054028;28;20195;-67
2021/08/07 03:36:55;;;;;;;3.23;3.00;;;22.40;34.80;;;;;;5053860;28;20457;-67
2021/08/07 03:39:21;;;;;;;2.87;2.67;;;22.40;35.60;;;;;;5054293;28;20677;-67
2021/08/07 03:41:48;;;;;;;4.23;2.50;;;22.50;34.90;;;;;;5036150;28;20255;-67
2021/08/07 03:44:15;;;;;;;2.70;2.40;;;22.40;34.80;;;;;;5035405;28;20434;-66
2021/08/07 03:46:40;;;;;;;2.70;2.50;;;22.40;34.90;;;;;;5053326;28;20430;-67
2021/08/07 03:49:06;;;;;;;2.67;2.10;;;22.50;34.90;;;;;;5053470;28;20896;-67
2021/08/07 03:51:31;;;;;;;3.57;2.37;;;22.50;34.90;;;;;;5053712;28;20254;-67
2021/08/07 03:53:57;;;;;;;2.30;2.20;;;22.50;34.90;;;;;;5053766;28;20200;-67
2021/08/07 03:56:22;;;;;;;3.67;2.50;;;22.50;34.90;;;;;;5053467;28;20199;-67
2021/08/07 03:58:48;;;;;;;2.50;2.30;;;22.50;34.90;;;;;;5053774;28;20215;-67
2021/08/07 04:01:14;;;;;;;2.73;2.53;;;22.50;34.80;;;;;;5053706;28;20168;-67
2021/08/07 04:03:39;;;;;;;2.57;2.37;;;22.50;34.80;;;;;;5053414;28;20175;-67
2021/08/07 04:06:04;;;;;;;2.63;2.43;;;22.50;34.80;;;;;;5053213;28;20195;-67
2021/08/07 04:08:30;;;;;;;2.50;2.30;;;22.50;34.80;;;;;;5051701;28;20699;-67
2021/08/07 04:10:56;;;;;;;2.47;2.27;;;22.50;34.80;;;;;;5053486;28;20259;-67
2021/08/07 04:13:21;;;;;;;2.33;2.20;;;22.50;34.80;;;;;;5053604;28;20188;-67
2021/08/07 04:15:47;;;;;;;12.57;2.63;;;22.50;34.70;;;;;;5053146;28;20701;-67
2021/08/07 04:18:12;;;;;;;3.60;2.10;;;22.50;34.80;;;;;;5053551;28;20645;-67
2021/08/07 04:20:38;;;;;;;2.33;2.20;;;22.50;34.80;;;;;;5053420;28;20626;-68
2021/08/07 04:23:05;;;;;;;3.40;2.03;;;22.50;34.80;;;;;;5053213;28;20172;-68
2021/08/07 04:25:31;;;;;;;3.20;2.50;;;22.50;34.90;;;;;;5052886;28;20192;-68
2021/08/07 04:27:56;;;;;;;4.00;1.93;;;22.50;34.80;;;;;;5051819;28;20447;-68
2021/08/07 04:30:22;;;;;;;2.63;2.17;;;22.50;34.80;;;;;;5051914;28;20588;-68
2021/08/07 04:32:47;;;;;;;2.97;2.33;;;22.50;34.70;;;;;;5051620;28;20638;-66
2021/08/07 04:35:13;;;;;;;2.83;2.30;;;22.50;34.60;;;;;;5051289;28;20253;-67
2021/08/07 04:37:50;;;;;;;2.90;2.20;;;22.50;34.60;;;;;;5051555;28;20172;-67
2021/08/07 04:40:16;;;;;;;2.90;2.43;;;22.50;34.70;;;;;;5051496;28;20548;-65
2021/08/07 04:42:42;;;;;;;3.77;2.10;;;22.50;34.70;;;;;;5051474;28;20402;-66
2021/08/07 04:45:09;;;;;;;2.30;2.10;;;22.50;34.60;;;;;;5051874;28;20750;-66
2021/08/07 04:47:34;;;;;;;2.50;2.30;;;22.50;34.60;;;;;;5052204;28;20186;-65
2021/08/07 04:50:00;;;;;;;2.83;2.43;;;22.50;34.70;;;;;;5052508;28;20410;-66
2021/08/07 04:52:25;;;;;;;2.67;2.40;;;22.50;34.70;;;;;;5052654;28;20202;-68
2021/08/07 04:54:51;;;;;;;3.03;2.30;;;22.50;34.60;;;;;;5052618;28;20196;-67
2021/08/07 04:57:16;;;;;;;4.30;2.50;;;22.50;34.70;;;;;;5052620;28;20250;-66
2021/08/07 04:59:42;;;;;;;2.23;2.10;;;22.50;34.80;;;;;;5052204;28;20195;-67
2021/08/07 05:02:07;;;;;;;2.23;2.10;;;22.50;34.90;;;;;;5052383;28;20258;-67
2021/08/07 05:04:33;;;;;;;2.53;2.30;;;22.50;34.90;;;;;;5052183;28;20168;-67
2021/08/07 05:06:59;;;;;;;1.93;1.83;;;22.50;34.80;;;;;;5052266;28;20574;-67
2021/08/07 05:09:24;;;;;;;4.70;2.13;;;22.50;34.80;;;;;;5052207;28;20406;-68
2021/08/07 05:11:50;;;;;;;2.77;2.57;;;22.50;34.80;;;;;;5051555;28;20172;-67
2021/08/07 05:14:15;;;;;;;2.60;2.40;;;22.50;34.80;;;;;;5051806;28;20199;-68
2021/08/07 05:16:41;;;;;;;2.93;2.70;;;22.50;34.90;;;;;;5051902;28;20191;-69
2021/08/07 05:19:06;;;;;;;2.53;2.33;;;22.50;35.00;;;;;;5052155;28;20209;-68
2021/08/07 05:21:32;;;;;;;3.90;2.33;;;22.50;35.10;;;;;;5052058;28;20247;-68
2021/08/07 05:23:57;;;;;;;2.63;2.43;;;22.50;35.10;;;;;;5051353;28;20214;-68
2021/08/07 05:26:23;;;;;;;2.47;2.27;;;22.50;35.00;;;;;;5051595;28;20611;-67
2021/08/07 05:28:48;;;;;;;3.20;2.40;;;22.50;35.00;;;;;;5051765;28;20268;-67
2021/08/07 05:31:14;;;;;;;2.37;2.17;;;22.60;35.10;;;;;;5051561;28;20172;-67
2021/08/07 05:33:39;;;;;;;3.33;2.50;;;22.50;35.00;;;;;;5049981;28;20187;-67
2021/08/07 05:36:05;;;;;;;4.70;2.80;;;22.60;35.00;;;;;;5050048;28;20191;-66
2021/08/07 05:38:31;;;;;;;2.77;2.53;;;22.60;35.00;;;;;;5051722;28;20172;-67
2021/08/07 05:40:56;;;;;;;2.60;2.43;;;22.60;35.00;;;;;;5050836;28;20179;-67
2021/08/07 05:43:22;;;;;;;2.77;2.60;;;22.60;35.00;;;;;;5051640;28;20176;-69
2021/08/07 05:45:47;;;;;;;4.40;2.73;;;22.60;34.90;;;;;;5051598;28;20687;-66
2021/08/07 05:48:13;;;;;;;2.60;2.20;;;22.60;34.80;;;;;;5050423;28;20665;-66
2021/08/07 05:50:39;;;;;;;2.70;2.37;;;22.60;34.70;;;;;;5050366;28;20184;-66
2021/08/07 05:53:05;;;;;;;2.67;2.20;;;22.60;34.70;;;;;;5036298;28;20440;-66
2021/08/07 05:55:30;;;;;;;2.90;2.40;;;22.60;34.60;;;;;;5023470;28;20219;-66
2021/08/07 05:57:58;;;;;;;4.90;2.30;;;22.60;34.50;;;;;;5018645;28;20193;-66
2021/08/07 06:00:24;;;;;;;3.93;2.47;;;22.60;34.50;;;;;;5035283;28;20183;-66
2021/08/07 06:02:49;;;;;;;1.90;1.80;;;22.60;34.40;;;;;;5048913;28;20437;-66
2021/08/07 06:05:15;;;;;;;2.40;2.20;;;22.60;34.20;;;;;;5045691;28;20669;-69
2021/08/07 06:07:40;;;;;;;3.77;2.53;;;22.60;34.20;;;;;;5030508;28;20334;-69
2021/08/07 06:10:07;;;;;;;1.93;1.83;;;22.60;34.20;;;;;;5029898;28;20183;-66
2021/08/07 06:12:32;;;;;;;2.50;2.30;;;22.60;34.20;;;;;;5030909;28;20268;-66
2021/08/07 06:14:58;;;;;;;2.73;2.20;;;22.60;34.30;;;;;;5031231;28;20546;-65
2021/08/07 06:17:23;;;;;;;2.73;2.53;;;22.60;34.30;;;;;;5037578;28;20196;-67
2021/08/07 06:19:49;;;;;;;2.80;2.30;;;22.60;34.40;;;;;;5051531;28;20168;-66
2021/08/07 06:22:14;;;;;;;2.60;1.93;;;22.60;34.40;;;;;;5051497;28;20168;-66
2021/08/07 06:24:40;;;;;;;3.23;2.70;;;22.60;34.30;;;;;;5051280;28;20184;-66
2021/08/07 06:27:06;;;;;;;3.10;2.80;;;22.60;34.30;;;;;;5051339;28;20200;-65
2021/08/07 06:29:32;;;;;;;7.73;2.37;;;22.60;34.30;;;;;;5051077;28;20180;-66
2021/08/07 06:31:57;;;;;;;2.50;2.10;;;22.60;34.10;;;;;;5051149;28;20936;-66
2021/08/07 06:34:23;;;;;;;2.53;2.30;;;22.60;34.10;;;;;;5051304;28;20265;-67
2021/08/07 06:36:48;;;;;;;2.00;1.90;;;22.60;34.00;;;;;;5050924;28;20192;-66
2021/08/07 06:39:14;;;;;;;2.33;2.13;;;22.60;34.00;;;;;;5051194;28;20168;-67
2021/08/07 06:41:39;;;;;;;2.50;2.30;;;22.60;33.90;;;;;;5051224;28;20168;-67
2021/08/07 06:44:05;;;;;;;2.27;2.17;;;22.70;34.00;;;;;;5051045;28;20176;-67
2021/08/07 06:46:30;;;;;;;2.43;2.23;;;22.70;34.00;;;;;;5050507;28;20219;-66
2021/08/07 06:48:56;;;;;;;2.93;1.80;;;22.70;34.10;;;;;;5050830;28;20180;-67
2021/08/07 06:51:21;;;;;;;2.90;2.23;;;22.70;34.00;;;;;;5051363;28;20173;-69
2021/08/07 06:53:47;;;;;;;5.10;2.37;;;22.70;34.10;;;;;;5051058;28;20184;-68
2021/08/07 06:56:13;;;;;;;2.50;2.30;;;22.70;34.00;;;;;;5050853;28;20246;-70
2021/08/07 06:58:39;;;;;;;2.43;2.23;;;22.70;34.10;;;;;;5050767;28;20192;-68
2021/08/07 07:01:04;;;;;;;2.23;1.80;;;22.70;34.00;;;;;;5051213;28;20951;-68
2021/08/07 07:03:30;;;;;;;2.40;2.13;;;22.70;34.00;;;;;;5051002;28;20176;-68
2021/08/07 07:05:55;;;;;;;2.10;2.00;;;22.70;33.80;;;;;;5050847;28;20197;-68
2021/08/07 07:08:21;;;;;;;2.20;2.10;;;22.70;33.70;;;;;;5051826;28;20176;-67
2021/08/07 07:10:47;;;;;;;2.20;1.90;;;22.70;33.70;;;;;;5050983;28;20195;-67
2021/08/07 07:13:13;;;;;;;2.87;2.27;;;22.70;33.70;;;;;;5050833;28;20916;-66
2021/08/07 07:15:38;;;;;;;2.30;2.10;;;22.70;33.70;;;;;;5050421;28;20204;-67
2021/08/07 07:18:04;;;;;;;2.43;2.33;;;22.80;33.70;;;;;;5050964;28;20180;-67
2021/08/07 07:20:30;;;;;;;2.07;1.97;;;22.80;33.70;;;;;;5052569;28;20164;-69
2021/08/07 07:22:55;;;;;;;2.60;2.13;;;22.80;33.60;;;;;;5054369;28;20180;-67
2021/08/07 07:25:21;;;;;;;2.60;2.10;;;22.80;33.50;;;;;;5054219;28;20249;-69
2021/08/07 07:27:47;;;;;;;1.90;1.80;;;22.80;33.40;;;;;;5054211;28;20575;-69
2021/08/07 07:30:14;;;;;;;1.80;1.70;;;22.80;33.30;;;;;;5054413;28;20707;-68
2021/08/07 07:32:40;;;;;;;3.00;2.33;;;22.80;33.10;;;;;;5054133;28;20414;-68
2021/08/07 07:35:07;;;;;;;2.90;2.03;;;22.70;33.00;;;;;;5053795;28;20519;-67
2021/08/07 07:37:32;;;;;;;2.00;1.90;;;22.80;32.90;;;;;;5053999;28;20411;-68
2021/08/07 07:39:58;;;;;;;2.90;2.00;;;22.80;33.00;;;;;;5054157;28;20896;-68
2021/08/07 07:42:24;;;;;;;2.23;2.10;;;22.80;32.90;;;;;;5053816;28;20192;-68
2021/08/07 07:44:50;;;;;;;2.47;1.87;;;22.80;32.80;;;;;;5053815;28;20418;-69
2021/08/07 07:47:15;;;;;;;2.50;2.30;;;22.80;32.80;;;;;;5053937;28;20572;-69
2021/08/07 07:49:41;;;;;;;2.30;2.10;;;22.80;32.80;;;;;;5054123;28;20289;-69
2021/08/07 07:52:06;;;;;;;2.17;1.97;;;22.80;32.70;;;;;;5054061;28;20176;-69
2021/08/07 07:54:32;;;;;;;2.03;1.70;;;22.80;32.80;;;;;;5046929;28;20294;-70
2021/08/07 07:56:57;;;;;;;2.40;2.20;;;22.80;32.80;;;;;;5033105;28;20568;-69
2021/08/07 07:59:24;;;;;;;3.80;2.00;;;22.80;32.80;;;;;;5033906;28;20301;-70
2021/08/07 08:01:50;;;;;;;4.17;2.53;;;22.80;33.00;;;;;;5033634;28;20165;-68
2021/08/07 08:04:15;;;;;;;16.03;2.90;;;22.70;33.00;;;;;;5033747;28;20502;-69
2021/08/07 08:06:41;;;;;;;3.83;2.07;;;22.70;33.00;;;;;;5033546;28;20200;-69
2021/08/07 08:09:07;;;;;;;4.63;2.33;;;22.80;33.00;;;;;;5033643;28;20574;-70
2021/08/07 08:11:32;;;;;;;3.43;2.07;;;22.80;33.10;;;;;;5033363;28;20581;-70
2021/08/07 08:13:58;;;;;;;3.33;1.97;;;22.80;33.20;;;;;;5033645;28;22143;-70
2021/08/07 08:16:23;;;;;;;2.07;1.87;;;22.80;33.30;;;;;;5033236;28;20207;-70
2021/08/07 08:18:49;;;;;;;2.20;2.00;;;22.80;33.40;;;;;;5033392;28;20184;-70
2021/08/07 08:21:14;;;;;;;2.40;2.13;;;22.80;33.40;;;;;;5033483;28;20176;-70
2021/08/07 08:23:40;;;;;;;3.03;2.37;;;22.80;33.30;;;;;;5033344;28;20643;-70
2021/08/07 08:26:05;;;;;;;2.23;2.13;;;22.80;33.40;;;;;;5032943;28;20204;-68
2021/08/07 08:28:31;;;;;;;3.63;2.13;;;22.80;33.40;;;;;;5033296;28;20172;-71
2021/08/07 08:30:57;;;;;;;3.47;2.40;;;22.80;33.40;;;;;;5033107;28;20214;-71
2021/08/07 08:33:23;;;;;;;7.87;2.30;;;22.90;33.50;;;;;;5033030;28;20465;-70
2021/08/07 08:35:48;;;;;;;2.83;1.97;;;22.80;33.40;;;;;;5032824;28;20287;-71
2021/08/07 08:38:14;;;;;;;2.60;2.33;;;22.90;33.50;;;;;;5033221;28;20192;-68
2021/08/07 08:40:40;;;;;;;3.67;2.50;;;22.80;33.50;;;;;;5032780;28;20635;-68
2021/08/07 08:43:06;;;;;;;3.13;2.27;;;22.90;33.60;;;;;;5033065;28;20246;-70
2021/08/07 08:45:32;;;;;;;2.57;2.47;;;22.80;33.60;;;;;;5032683;28;20451;-69
2021/08/07 08:47:59;;;;;;;2.70;2.20;;;22.90;33.70;;;;;;5015328;28;20181;-71
2021/08/07 08:50:26;;;;;;;3.23;2.03;;;22.90;33.70;;;;;;5032757;28;20256;-70
2021/08/07 08:52:55;;;;;;;2.43;2.23;;;22.90;33.80;;;;;;5032919;28;20906;-71
2021/08/07 08:55:20;;;;;;;3.50;2.57;;;22.90;33.80;;;;;;5032192;28;20470;-69
2021/08/07 08:57:47;;;;;;;3.17;2.67;;;22.90;33.80;;;;;;5032752;28;20859;-70
2021/08/07 09:00:12;;;;;;;7.03;2.67;;;22.90;33.80;;;;;;5032749;28;20230;-72
2021/08/07 09:02:38;;;;;;;3.00;2.67;;;22.90;33.80;;;;;;5032523;28;20486;-69
2021/08/07 09:05:06;;;;;;;3.87;2.30;;;22.90;33.90;;;;;;5032386;28;20658;-70
2021/08/07 09:07:32;;;;;;;3.23;2.93;;;22.90;33.90;;;;;;5032540;28;20415;-71
2021/08/07 09:09:57;;;;;;;2.50;2.30;;;22.90;33.90;;;;;;5032259;28;20411;-70
2021/08/07 09:12:43;;;;;;;5.63;2.63;;;22.90;33.90;;;;;;5032527;28;20172;-71
2021/08/07 09:15:31;;;;;;;4.30;2.73;;;22.90;34.00;;;;;;5032015;28;20686;-71
2021/08/07 09:18:17;;;;;;;5.50;3.20;;;22.90;34.00;;;;;;5032352;28;20458;-70
2021/08/07 09:20:47;;;;;;;5.37;2.60;;;22.90;34.00;;;;;;5032306;28;20399;-70
2021/08/07 09:23:14;;;;;;;3.73;3.20;;;22.90;34.00;;;;;;5032308;28;20411;-70
2021/08/07 09:25:42;;;;;;;4.63;3.33;;;22.90;34.10;;;;;;5032051;28;20423;-71
2021/08/07 09:28:08;;;;;;;5.43;3.30;;;22.90;34.10;;;;;;5032285;28;20415;-71
2021/08/07 09:30:37;;;;;;;6.30;3.77;;;22.90;34.10;;;;;;5032052;28;20901;-70
2021/08/07 09:33:08;;;;;;;8.83;3.50;;;22.90;34.10;;;;;;5032022;28;20415;-71
2021/08/07 09:35:39;;;;;;;3.30;2.90;;;22.90;34.20;;;;;;5032007;28;20499;-70
2021/08/07 09:38:09;;;;;;;6.33;2.90;;;22.90;34.20;;;;;;5032051;28;20453;-71
2021/08/07 09:41:01;;;;;;;6.00;3.40;;;22.90;34.20;;;;;;5032074;28;20408;-71
2021/08/07 09:43:34;;;;;;;4.63;2.90;;;22.90;34.10;;;;;;5024879;28;20445;-71
2021/08/07 09:46:24;;;;;;;6.03;3.57;;;22.90;34.20;;;;;;5031580;28;20836;-71
2021/08/07 09:48:54;;;;;;;5.07;2.90;;;22.90;34.30;;;;;;5031827;28;20411;-69
2021/08/07 09:51:27;;;;;;;4.13;3.00;;;22.90;34.40;;;;;;5031991;28;20777;-71
2021/08/07 09:54:34;;;;;;;7.33;2.93;;;22.90;34.30;;;;;;5031761;28;20797;-71
2021/08/07 09:57:00;;;;;;;4.50;3.00;;;22.90;34.30;;;;;;5002106;28;20446;-66
2021/08/07 09:59:30;;;;;;;4.37;3.10;;;22.90;34.30;;;;;;5031677;28;20506;-67
2021/08/07 10:01:57;;;;;;;4.40;3.00;;;23.00;34.40;;;;;;5032188;28;20461;-68
2021/08/07 10:04:23;;;;;;;3.30;2.73;;;22.90;34.30;;;;;;5031807;28;20777;-68
2021/08/07 10:07:04;;;;;;;3.77;3.07;;;22.90;34.20;;;;;;5031510;28;20431;-67
2021/08/07 10:09:32;;;;;;;4.73;2.80;;;22.90;34.10;;;;;;5031747;28;20263;-68
2021/08/07 10:12:08;;;;;;;4.50;2.43;;;22.90;34.20;;;;;;5032200;28;20415;-69
2021/08/07 10:14:39;;;;;;;3.30;3.00;;;22.90;34.20;;;;;;5031466;28;20451;-68
2021/08/07 10:17:06;;;;;;;5.03;3.17;;;22.90;34.30;;;;;;5035404;28;20434;-68
2021/08/07 10:19:33;;;;;;;2.93;2.57;;;22.90;34.40;;;;;;5051434;28;20407;-68
2021/08/07 10:22:00;;;;;;;3.13;2.90;;;22.90;34.50;;;;;;5051455;28;20815;-68
2021/08/07 10:24:28;;;;;;;3.27;2.80;;;22.90;34.70;;;;;;5051403;28;20413;-68
2021/08/07 10:26:55;;;;;;;3.20;2.80;;;23.00;34.90;;;;;;5050937;28;20537;-68
2021/08/07 10:29:28;;;;;;;2.70;2.50;;;23.00;35.00;;;;;;5051580;28;20411;-69
2021/08/07 10:31:55;;;;;;;2.97;2.77;;;22.90;35.00;;;;;;5051503;28;20410;-68
2021/08/07 10:34:22;;;;;;;6.03;2.90;;;22.90;35.10;;;;;;5051196;28;20454;-66
2021/08/07 10:36:49;;;;;;;2.83;2.63;;;22.90;35.70;;;;;;5051093;28;20422;-67
2021/08/07 10:39:15;;;;;;;3.87;3.30;;;22.90;36.20;;;;;;5051339;28;20445;-68
2021/08/07 10:41:42;;;;;;;4.97;3.00;;;22.90;36.20;;;;;;5051303;28;20406;-67
2021/08/07 10:44:09;;;;;;;3.23;3.00;;;22.90;36.20;;;;;;5051211;28;20460;-68
2021/08/07 10:46:36;;;;;;;3.97;2.93;;;22.90;36.20;;;;;;5051155;28;20430;-68
2021/08/07 10:49:02;;;;;;;2.80;2.60;;;22.90;36.20;;;;;;5051293;28;20414;-67
2021/08/07 10:51:29;;;;;;;3.37;3.00;;;22.90;36.30;;;;;;5051159;28;20784;-68
2021/08/07 10:54:00;;;;;;;2.93;2.63;;;22.90;36.40;;;;;;5051921;28;20410;-67
2021/08/07 10:56:29;;;;;;;3.20;2.90;;;22.90;36.50;;;;;;5054694;28;20430;-68
2021/08/07 10:58:56;;;;;;;2.90;2.60;;;22.90;36.80;;;;;;5054753;28;20422;-68
2021/08/07 11:01:25;;;;;;;3.60;3.30;;;22.90;37.00;;;;;;5054912;28;20963;-68
2021/08/07 11:04:15;;;;;;;3.17;2.37;;;22.90;37.30;;;;;;5054795;28;20413;-68
2021/08/07 11:06:40;;;;;;;3.10;2.70;;;22.90;37.20;;;;;;5054358;28;20430;-68
2021/08/07 11:09:31;;;;;;;2.90;2.70;;;22.90;37.20;;;;;;5054813;28;20410;-68
2021/08/07 11:12:06;;;;;;;2.83;2.50;;;22.90;37.50;;;;;;5054690;28;20178;-68
2021/08/07 11:14:35;;;;;;;2.97;2.77;;;22.90;37.70;;;;;;5054807;28;20542;-68
2021/08/07 11:17:06;;;;;;;5.07;3.20;;;22.90;37.70;;;;;;5054093;28;20423;-71
2021/08/07 11:19:50;;;;;;;2.73;2.47;;;22.90;37.70;;;;;;5054640;28;20399;-68
2021/08/07 11:22:32;;;;;;;2.80;2.60;;;22.90;37.70;;;;;;5054522;28;20414;-69
2021/08/07 11:25:00;;;;;;;2.40;2.27;;;22.90;37.90;;;;;;5054312;28;20461;-69
2021/08/07 11:30:34;;;;;;;2.97;2.77;;;22.90;38.40;;;;;;5054920;28;20505;-68
2021/08/07 11:33:04;;;;;;;2.90;2.60;;;22.90;38.70;;;;;;5054111;28;20495;-68
2021/08/07 11:35:32;;;;;;;2.53;2.33;;;22.90;38.90;;;;;;5053853;28;20465;-69
2021/08/07 11:38:19;;;;;;;3.00;2.60;;;22.90;39.10;;;;;;5054042;28;20464;-69
2021/08/07 11:40:49;;;;;;;2.77;2.57;;;22.90;39.40;;;;;;5054295;28;20456;-69
2021/08/07 11:43:35;;;;;;;3.33;2.73;;;22.90;39.60;;;;;;5054267;28;20438;-69
2021/08/07 11:46:06;;;;;;;2.57;2.40;;;22.90;39.60;;;;;;5015047;28;20451;-69
2021/08/07 11:48:40;;;;;;;2.90;2.70;;;22.90;39.70;;;;;;5014268;28;20415;-69
2021/08/07 11:51:14;;;;;;;3.17;2.97;;;22.90;39.70;;;;;;5014336;28;20421;-71
2021/08/07 11:53:43;;;;;;;2.90;2.70;;;22.90;39.80;;;;;;5014124;28;20463;-69
2021/08/07 11:56:14;;;;;;;6.33;3.00;;;22.90;40.00;;;;;;5013720;28;20988;-70
2021/08/07 11:58:54;;;;;;;3.93;2.87;;;22.90;40.20;;;;;;5013763;28;20840;-69
2021/08/07 12:01:21;;;;;;;2.90;2.70;;;22.90;40.30;;;;;;5015117;28;20495;-69
2021/08/07 12:03:51;;;;;;;3.00;2.80;;;22.90;40.20;;;;;;5033388;28;20417;-70
2021/08/07 12:06:19;;;;;;;2.80;2.60;;;22.90;40.20;;;;;;5032454;28;20458;-70
2021/08/07 12:08:46;;;;;;;4.30;3.87;;;22.90;40.20;;;;;;5033535;28;20408;-70
2021/08/07 12:11:17;;;;;;;3.67;3.03;;;22.80;40.20;;;;;;5033676;28;20461;-69
2021/08/07 12:13:50;;;;;;;2.63;2.53;;;22.80;40.20;;;;;;5033767;28;20937;-68
2021/08/07 12:16:18;;;;;;;4.40;2.83;;;22.90;40.20;;;;;;5033490;28;20435;-71
2021/08/07 12:18:58;;;;;;;3.00;2.60;;;22.90;40.20;;;;;;5033411;28;20403;-68
2021/08/07 12:21:23;;;;;;;2.83;2.63;;;22.80;40.10;;;;;;5033507;28;20400;-72
2021/08/07 12:23:58;;;;;;;2.80;2.60;;;22.90;40.10;;;;;;5033255;28;20924;-70
2021/08/07 12:26:25;;;;;;;2.93;2.70;;;22.90;40.10;;;;;;5033173;28;20203;-71
2021/08/07 12:28:58;;;;;;;2.60;2.40;;;22.90;40.30;;;;;;5033230;28;20407;-71
2021/08/07 12:31:36;;;;;;;3.77;3.50;;;22.90;40.30;;;;;;5033390;28;20402;-70
2021/08/07 12:34:19;;;;;;;3.03;2.73;;;22.90;40.50;;;;;;5032934;28;20909;-71
2021/08/07 12:37:08;;;;;;;3.30;2.60;;;22.90;40.40;;;;;;5032973;28;20420;-72
2021/08/07 12:39:53;;;;;;;2.63;2.43;;;22.90;40.40;;;;;;5029196;28;20403;-71
2021/08/07 12:42:24;;;;;;;3.13;2.83;;;22.90;40.40;;;;;;5019912;28;20400;-71
2021/08/07 12:45:01;;;;;;;3.13;2.90;;;22.90;40.30;;;;;;5032120;28;20423;-70
2021/08/07 12:47:28;;;;;;;4.90;2.97;;;22.90;40.20;;;;;;5022237;28;20503;-70
2021/08/07 12:49:54;;;;;;;3.83;2.73;;;22.90;40.30;;;;;;5023752;28;20944;-68
2021/08/07 12:52:20;;;;;;;3.10;2.90;;;22.90;40.20;;;;;;5013368;28;20420;-69
2021/08/07 12:55:06;;;;;;;2.90;2.70;;;22.90;40.00;;;;;;5012703;28;20248;-69